createdAt,value
2023-12-30T00:04:53.524Z,83
2023-12-30T00:14:53.654Z,83
2023-12-30T00:24:53.882Z,83
2023-12-30T00:34:54.065Z,82
2023-12-30T00:44:54.247Z,82
2023-12-30T00:54:54.440Z,82
2023-12-30T01:04:54.674Z,82
2023-12-30T01:14:54.824Z,81
2023-12-30T01:24:55.074Z,82
2023-12-30T01:34:55.318Z,81
2023-12-30T01:44:55.405Z,83
2023-12-30T01:54:55.683Z,83
2023-12-30T02:04:55.780Z,83
2023-12-30T02:14:55.975Z,83
2023-12-30T02:24:56.196Z,83
2023-12-30T02:34:56.476Z,84
2023-12-30T02:44:56.556Z,84
2023-12-30T02:54:56.775Z,85
2023-12-30T03:04:57.012Z,85
2023-12-30T03:24:57.405Z,84
2023-12-30T03:34:57.558Z,84
2023-12-30T04:04:58.211Z,84
2023-12-30T04:14:58.305Z,84
2023-12-30T04:24:58.770Z,82
2023-12-30T04:34:58.751Z,81
2023-12-30T04:44:58.890Z,82
2023-12-30T05:24:59.715Z,87
2023-12-30T05:34:59.885Z,87
2023-12-30T05:45:00.061Z,87
2023-12-30T05:55:00.464Z,87
2023-12-30T06:05:00.464Z,86
2023-12-30T06:15:00.667Z,86
2023-12-30T06:25:00.879Z,86
2023-12-30T07:05:01.655Z,86
2023-12-30T07:15:01.793Z,86
2023-12-30T07:25:02.030Z,86
2023-12-30T07:45:02.385Z,85
2023-12-30T07:55:02.594Z,85
2023-12-30T08:05:02.814Z,85
2023-12-30T08:25:03.220Z,85
2023-12-30T08:45:03.538Z,85
2023-12-30T08:55:03.771Z,86
2023-12-30T09:05:03.956Z,86
2023-12-30T09:15:10.221Z,86
2023-12-30T09:25:04.348Z,86
2023-12-30T09:35:04.651Z,86
2023-12-30T09:45:04.744Z,85
2023-12-30T10:05:11.243Z,85
2023-12-30T10:25:05.522Z,85
2023-12-30T10:35:05.673Z,86
2023-12-30T10:45:11.977Z,85
2023-12-30T10:55:06.306Z,84
2023-12-30T11:05:06.311Z,84
2023-12-30T11:15:06.438Z,84
2023-12-30T11:35:06.843Z,84
2023-12-30T11:45:07.024Z,84
2023-12-30T11:55:07.239Z,84
2023-12-30T12:05:07.461Z,84
2023-12-30T12:15:07.739Z,84
2023-12-30T12:25:07.826Z,84
2023-12-30T12:35:08.113Z,83
2023-12-30T12:45:08.178Z,83
2023-12-30T12:55:08.403Z,83
2023-12-30T13:05:08.567Z,81
2023-12-30T13:15:08.743Z,81
2023-12-30T13:35:09.194Z,80
2023-12-30T14:05:09.723Z,77
2023-12-30T14:25:10.114Z,76
2023-12-30T14:55:10.731Z,76
2023-12-30T15:35:11.534Z,76
2023-12-30T15:45:11.639Z,76
2023-12-30T15:55:11.852Z,77
2023-12-30T17:25:19.689Z,78
2023-12-30T17:35:19.868Z,78
2023-12-30T19:35:22.184Z,77
2023-12-30T19:55:16.461Z,77
2023-12-30T20:05:16.987Z,78
2023-12-30T20:25:17.097Z,79
2023-12-30T20:35:17.227Z,79
2023-12-30T20:45:23.514Z,79
2023-12-30T20:55:23.745Z,79
2023-12-30T21:05:17.867Z,80
2023-12-30T21:15:18.010Z,80
2023-12-30T21:25:22.790Z,80
2023-12-30T21:35:18.369Z,80
2023-12-30T21:45:18.604Z,80
2023-12-30T21:55:18.796Z,80
2023-12-30T22:05:19.031Z,80
2023-12-30T22:15:19.157Z,81
2023-12-30T22:25:19.422Z,80
2023-12-30T22:35:19.553Z,80
2023-12-30T22:45:19.754Z,80
2023-12-30T22:55:19.987Z,80
2023-12-30T23:05:20.170Z,80
2023-12-30T23:15:20.305Z,80
2023-12-30T23:45:20.888Z,81
2023-12-30T23:55:27.198Z,81
